sensor_id;sensor_type;location;lat;lon;timestamp;temperature;humidity
48666;DHT22;34452;50.796;4.994;2022-12-11T00:02:03;2.20;99.90
48666;DHT22;34452;50.796;4.994;2022-12-11T00:04:29;2.20;99.90
48666;DHT22;34452;50.796;4.994;2022-12-11T00:06:55;2.20;99.90
48666;DHT22;34452;50.796;4.994;2022-12-11T00:09:21;2.30;99.90
48666;DHT22;34452;50.796;4.994;2022-12-11T00:11:47;2.20;99.90
48666;DHT22;34452;50.796;4.994;2022-12-11T00:14:14;2.20;99.90
48666;DHT22;34452;50.796;4.994;2022-12-11T00:16:40;2.30;99.90
48666;DHT22;34452;50.796;4.994;2022-12-11T00:19:06;2.30;99.90
48666;DHT22;34452;50.796;4.994;2022-12-11T00:21:32;2.30;99.90
48666;DHT22;34452;50.796;4.994;2022-12-11T00:23:58;2.30;99.90
48666;DHT22;34452;50.796;4.994;2022-12-11T00:26:24;2.30;99.90
48666;DHT22;34452;50.796;4.994;2022-12-11T00:28:54;2.40;99.90
48666;DHT22;34452;50.796;4.994;2022-12-11T00:31:21;2.40;99.90
48666;DHT22;34452;50.796;4.994;2022-12-11T00:33:47;2.40;99.90
48666;DHT22;34452;50.796;4.994;2022-12-11T00:36:21;2.40;99.90
48666;DHT22;34452;50.796;4.994;2022-12-11T00:38:48;2.40;99.90
48666;DHT22;34452;50.796;4.994;2022-12-11T00:41:14;2.40;99.90
48666;DHT22;34452;50.796;4.994;2022-12-11T00:43:40;2.30;99.90
48666;DHT22;34452;50.796;4.994;2022-12-11T00:46:07;2.30;99.90
48666;DHT22;34452;50.796;4.994;2022-12-11T00:48:32;2.30;99.90
48666;DHT22;34452;50.796;4.994;2022-12-11T00:50:58;2.30;99.90
48666;DHT22;34452;50.796;4.994;2022-12-11T00:53:24;2.30;99.90
48666;DHT22;34452;50.796;4.994;2022-12-11T00:55:50;2.30;99.90
48666;DHT22;34452;50.796;4.994;2022-12-11T00:58:15;2.30;99.90
48666;DHT22;34452;50.796;4.994;2022-12-11T01:00:42;2.30;99.90
48666;DHT22;34452;50.796;4.994;2022-12-11T01:03:09;2.30;99.90
48666;DHT22;34452;50.796;4.994;2022-12-11T01:05:35;2.30;99.90
48666;DHT22;34452;50.796;4.994;2022-12-11T01:08:01;2.40;99.90
48666;DHT22;34452;50.796;4.994;2022-12-11T01:10:27;2.30;99.90
48666;DHT22;34452;50.796;4.994;2022-12-11T01:13:02;2.40;99.90
48666;DHT22;34452;50.796;4.994;2022-12-11T01:15:30;2.40;99.90
48666;DHT22;34452;50.796;4.994;2022-12-11T01:17:57;2.40;99.90
48666;DHT22;34452;50.796;4.994;2022-12-11T01:20:24;2.40;99.90
48666;DHT22;34452;50.796;4.994;2022-12-11T01:22:57;2.40;99.90
48666;DHT22;34452;50.796;4.994;2022-12-11T01:25:24;2.40;99.90
48666;DHT22;34452;50.796;4.994;2022-12-11T01:27:51;2.40;99.90
48666;DHT22;34452;50.796;4.994;2022-12-11T01:30:18;2.40;99.90
48666;DHT22;34452;50.796;4.994;2022-12-11T01:32:44;2.40;99.90
48666;DHT22;34452;50.796;4.994;2022-12-11T01:35:10;2.40;99.90
48666;DHT22;34452;50.796;4.994;2022-12-11T01:37:36;2.40;99.90
48666;DHT22;34452;50.796;4.994;2022-12-11T01:40:03;2.30;99.90
48666;DHT22;34452;50.796;4.994;2022-12-11T01:42:30;2.30;99.90
48666;DHT22;34452;50.796;4.994;2022-12-11T01:47:46;2.20;99.90
48666;DHT22;34452;50.796;4.994;2022-12-11T01:50:12;2.20;99.90
48666;DHT22;34452;50.796;4.994;2022-12-11T01:52:38;2.20;99.90
48666;DHT22;34452;50.796;4.994;2022-12-11T01:55:04;2.20;99.90
48666;DHT22;34452;50.796;4.994;2022-12-11T01:57:31;2.20;99.90
48666;DHT22;34452;50.796;4.994;2022-12-11T01:59:57;2.20;99.90
48666;DHT22;34452;50.796;4.994;2022-12-11T02:02:28;2.20;99.90
48666;DHT22;34452;50.796;4.994;2022-12-11T02:04:54;2.20;99.90
48666;DHT22;34452;50.796;4.994;2022-12-11T02:07:20;2.10;99.90
48666;DHT22;34452;50.796;4.994;2022-12-11T02:09:46;2.20;99.90
48666;DHT22;34452;50.796;4.994;2022-12-11T02:12:47;2.10;99.90
48666;DHT22;34452;50.796;4.994;2022-12-11T02:15:35;2.20;99.90
48666;DHT22;34452;50.796;4.994;2022-12-11T02:29:15;2.10;99.90
48666;DHT22;34452;50.796;4.994;2022-12-11T02:32:03;2.10;99.90
48666;DHT22;34452;50.796;4.994;2022-12-11T02:34:37;2.10;99.90
48666;DHT22;34452;50.796;4.994;2022-12-11T02:37:11;2.10;99.90
48666;DHT22;34452;50.796;4.994;2022-12-11T02:39:39;2.10;99.90
48666;DHT22;34452;50.796;4.994;2022-12-11T02:42:08;2.10;99.90
48666;DHT22;34452;50.796;4.994;2022-12-11T02:44:36;2.00;99.90
48666;DHT22;34452;50.796;4.994;2022-12-11T02:47:04;2.00;99.90
48666;DHT22;34452;50.796;4.994;2022-12-11T02:49:32;2.00;99.90
48666;DHT22;34452;50.796;4.994;2022-12-11T02:52:01;1.90;99.90
48666;DHT22;34452;50.796;4.994;2022-12-11T02:54:31;1.90;99.90
48666;DHT22;34452;50.796;4.994;2022-12-11T02:57:07;1.90;99.90
48666;DHT22;34452;50.796;4.994;2022-12-11T02:59:43;1.90;99.90
48666;DHT22;34452;50.796;4.994;2022-12-11T03:02:10;1.90;99.90
48666;DHT22;34452;50.796;4.994;2022-12-11T03:04:36;1.90;99.90
48666;DHT22;34452;50.796;4.994;2022-12-11T03:07:08;1.90;99.90
48666;DHT22;34452;50.796;4.994;2022-12-11T03:09:45;1.90;99.90
48666;DHT22;34452;50.796;4.994;2022-12-11T03:12:14;1.90;99.90
48666;DHT22;34452;50.796;4.994;2022-12-11T03:14:41;1.90;99.90
48666;DHT22;34452;50.796;4.994;2022-12-11T03:28:56;1.90;99.90
48666;DHT22;34452;50.796;4.994;2022-12-11T03:31:49;1.90;99.90
48666;DHT22;34452;50.796;4.994;2022-12-11T03:37:03;1.90;99.90
48666;DHT22;34452;50.796;4.994;2022-12-11T03:39:36;1.90;99.90
48666;DHT22;34452;50.796;4.994;2022-12-11T03:42:05;1.80;99.90
48666;DHT22;34452;50.796;4.994;2022-12-11T03:44:34;1.70;99.90
48666;DHT22;34452;50.796;4.994;2022-12-11T03:47:02;1.80;99.90
48666;DHT22;34452;50.796;4.994;2022-12-11T03:49:33;1.80;99.90
48666;DHT22;34452;50.796;4.994;2022-12-11T03:52:01;1.80;99.90
48666;DHT22;34452;50.796;4.994;2022-12-11T03:54:28;1.80;99.90
48666;DHT22;34452;50.796;4.994;2022-12-11T03:56:57;1.70;99.90
48666;DHT22;34452;50.796;4.994;2022-12-11T03:59:24;1.70;99.90
48666;DHT22;34452;50.796;4.994;2022-12-11T04:01:50;1.80;99.90
48666;DHT22;34452;50.796;4.994;2022-12-11T04:04:16;1.90;99.90
48666;DHT22;34452;50.796;4.994;2022-12-11T04:06:41;1.80;99.90
48666;DHT22;34452;50.796;4.994;2022-12-11T04:09:07;1.80;99.90
48666;DHT22;34452;50.796;4.994;2022-12-11T04:11:33;1.70;99.90
48666;DHT22;34452;50.796;4.994;2022-12-11T04:14:03;1.70;99.90
48666;DHT22;34452;50.796;4.994;2022-12-11T04:16:48;1.80;99.90
48666;DHT22;34452;50.796;4.994;2022-12-11T04:19:14;1.80;99.90
48666;DHT22;34452;50.796;4.994;2022-12-11T04:21:58;1.80;99.90
48666;DHT22;34452;50.796;4.994;2022-12-11T04:24:42;1.80;99.90
48666;DHT22;34452;50.796;4.994;2022-12-11T04:27:08;1.80;99.90
48666;DHT22;34452;50.796;4.994;2022-12-11T04:29:33;1.90;99.90
48666;DHT22;34452;50.796;4.994;2022-12-11T04:31:59;1.80;99.90
48666;DHT22;34452;50.796;4.994;2022-12-11T04:34:25;1.80;99.90
48666;DHT22;34452;50.796;4.994;2022-12-11T04:36:50;1.80;99.90
48666;DHT22;34452;50.796;4.994;2022-12-11T04:39:16;1.80;99.90
48666;DHT22;34452;50.796;4.994;2022-12-11T04:41:42;1.90;99.90
48666;DHT22;34452;50.796;4.994;2022-12-11T04:44:08;1.90;99.90
48666;DHT22;34452;50.796;4.994;2022-12-11T04:46:34;1.90;99.90
48666;DHT22;34452;50.796;4.994;2022-12-11T04:49:00;1.90;99.90
48666;DHT22;34452;50.796;4.994;2022-12-11T04:51:27;1.90;99.90
48666;DHT22;34452;50.796;4.994;2022-12-11T04:53:53;1.90;99.90
48666;DHT22;34452;50.796;4.994;2022-12-11T04:56:19;1.80;99.90
48666;DHT22;34452;50.796;4.994;2022-12-11T04:58:45;1.90;99.90
48666;DHT22;34452;50.796;4.994;2022-12-11T05:01:18;1.80;99.90
48666;DHT22;34452;50.796;4.994;2022-12-11T05:03:45;1.90;99.90
48666;DHT22;34452;50.796;4.994;2022-12-11T05:06:10;1.80;99.90
48666;DHT22;34452;50.796;4.994;2022-12-11T05:08:38;1.80;99.90
48666;DHT22;34452;50.796;4.994;2022-12-11T05:11:06;1.80;99.90
48666;DHT22;34452;50.796;4.994;2022-12-11T05:13:32;1.80;99.90
48666;DHT22;34452;50.796;4.994;2022-12-11T05:15:58;1.80;99.90
48666;DHT22;34452;50.796;4.994;2022-12-11T05:18:24;1.80;99.90
48666;DHT22;34452;50.796;4.994;2022-12-11T05:20:53;1.80;99.90
48666;DHT22;34452;50.796;4.994;2022-12-11T05:23:19;1.80;99.90
48666;DHT22;34452;50.796;4.994;2022-12-11T05:25:54;1.80;99.90
48666;DHT22;34452;50.796;4.994;2022-12-11T05:28:21;1.70;99.90
48666;DHT22;34452;50.796;4.994;2022-12-11T05:30:46;1.80;99.90
48666;DHT22;34452;50.796;4.994;2022-12-11T05:33:12;1.80;99.90
48666;DHT22;34452;50.796;4.994;2022-12-11T05:35:38;1.80;99.90
48666;DHT22;34452;50.796;4.994;2022-12-11T05:38:04;1.80;99.90
48666;DHT22;34452;50.796;4.994;2022-12-11T05:40:29;1.80;99.90
48666;DHT22;34452;50.796;4.994;2022-12-11T05:42:55;1.90;99.90
48666;DHT22;34452;50.796;4.994;2022-12-11T05:45:21;1.80;99.90
48666;DHT22;34452;50.796;4.994;2022-12-11T05:47:46;1.80;99.90
48666;DHT22;34452;50.796;4.994;2022-12-11T05:50:12;1.80;99.90
48666;DHT22;34452;50.796;4.994;2022-12-11T05:52:38;1.80;99.90
48666;DHT22;34452;50.796;4.994;2022-12-11T05:55:04;1.70;99.90
48666;DHT22;34452;50.796;4.994;2022-12-11T05:57:29;1.70;99.90
48666;DHT22;34452;50.796;4.994;2022-12-11T05:59:55;1.70;99.90
48666;DHT22;34452;50.796;4.994;2022-12-11T06:02:21;1.70;99.90
48666;DHT22;34452;50.796;4.994;2022-12-11T06:04:46;1.60;99.90
48666;DHT22;34452;50.796;4.994;2022-12-11T06:07:12;1.60;99.90
48666;DHT22;34452;50.796;4.994;2022-12-11T06:09:38;1.60;99.90
48666;DHT22;34452;50.796;4.994;2022-12-11T06:12:04;1.60;99.90
48666;DHT22;34452;50.796;4.994;2022-12-11T06:14:29;1.60;99.90
48666;DHT22;34452;50.796;4.994;2022-12-11T06:16:55;1.60;99.90
48666;DHT22;34452;50.796;4.994;2022-12-11T06:19:21;1.60;99.90
48666;DHT22;34452;50.796;4.994;2022-12-11T06:21:46;1.60;99.90
48666;DHT22;34452;50.796;4.994;2022-12-11T06:24:13;1.60;99.90
48666;DHT22;34452;50.796;4.994;2022-12-11T06:26:39;1.60;99.90
48666;DHT22;34452;50.796;4.994;2022-12-11T06:29:05;1.60;99.90
48666;DHT22;34452;50.796;4.994;2022-12-11T06:31:30;1.60;99.90
48666;DHT22;34452;50.796;4.994;2022-12-11T06:33:56;1.60;99.90
48666;DHT22;34452;50.796;4.994;2022-12-11T06:36:22;1.60;99.90
48666;DHT22;34452;50.796;4.994;2022-12-11T06:38:48;1.70;99.90
48666;DHT22;34452;50.796;4.994;2022-12-11T06:41:14;1.70;99.90
48666;DHT22;34452;50.796;4.994;2022-12-11T06:43:41;1.70;99.90
48666;DHT22;34452;50.796;4.994;2022-12-11T06:46:15;1.70;99.90
48666;DHT22;34452;50.796;4.994;2022-12-11T06:48:42;1.70;99.90
48666;DHT22;34452;50.796;4.994;2022-12-11T06:51:19;1.80;99.90
48666;DHT22;34452;50.796;4.994;2022-12-11T06:53:54;1.80;99.90
48666;DHT22;34452;50.796;4.994;2022-12-11T06:56:22;1.70;99.90
48666;DHT22;34452;50.796;4.994;2022-12-11T06:58:48;1.70;99.90
48666;DHT22;34452;50.796;4.994;2022-12-11T07:01:22;1.70;99.90
48666;DHT22;34452;50.796;4.994;2022-12-11T07:03:51;1.70;99.90
48666;DHT22;34452;50.796;4.994;2022-12-11T07:06:16;1.70;99.90
48666;DHT22;34452;50.796;4.994;2022-12-11T07:08:42;1.70;99.90
48666;DHT22;34452;50.796;4.994;2022-12-11T07:11:11;1.70;99.90
48666;DHT22;34452;50.796;4.994;2022-12-11T07:13:37;1.60;99.90
48666;DHT22;34452;50.796;4.994;2022-12-11T07:16:03;1.50;99.90
48666;DHT22;34452;50.796;4.994;2022-12-11T07:18:35;1.60;99.90
48666;DHT22;34452;50.796;4.994;2022-12-11T07:21:01;1.60;99.90
48666;DHT22;34452;50.796;4.994;2022-12-11T07:23:28;1.60;99.90
48666;DHT22;34452;50.796;4.994;2022-12-11T07:25:54;1.70;99.90
48666;DHT22;34452;50.796;4.994;2022-12-11T07:28:19;1.70;99.90
48666;DHT22;34452;50.796;4.994;2022-12-11T07:30:45;1.70;99.90
48666;DHT22;34452;50.796;4.994;2022-12-11T07:33:11;1.60;99.90
48666;DHT22;34452;50.796;4.994;2022-12-11T07:35:37;1.50;99.90
48666;DHT22;34452;50.796;4.994;2022-12-11T07:38:02;1.50;99.90
48666;DHT22;34452;50.796;4.994;2022-12-11T07:40:28;1.60;99.90
48666;DHT22;34452;50.796;4.994;2022-12-11T07:42:54;1.60;99.90
48666;DHT22;34452;50.796;4.994;2022-12-11T07:45:20;1.50;99.90
48666;DHT22;34452;50.796;4.994;2022-12-11T07:47:45;1.40;99.90
48666;DHT22;34452;50.796;4.994;2022-12-11T07:50:11;1.40;99.90
48666;DHT22;34452;50.796;4.994;2022-12-11T07:52:37;1.40;99.90
48666;DHT22;34452;50.796;4.994;2022-12-11T07:55:03;1.50;99.90
48666;DHT22;34452;50.796;4.994;2022-12-11T07:57:29;1.50;99.90
48666;DHT22;34452;50.796;4.994;2022-12-11T07:59:55;1.40;99.90
48666;DHT22;34452;50.796;4.994;2022-12-11T08:02:21;1.40;99.90
48666;DHT22;34452;50.796;4.994;2022-12-11T08:04:47;1.40;99.90
48666;DHT22;34452;50.796;4.994;2022-12-11T08:07:12;1.30;99.90
48666;DHT22;34452;50.796;4.994;2022-12-11T08:09:38;1.40;99.90
48666;DHT22;34452;50.796;4.994;2022-12-11T08:12:04;1.40;99.90
48666;DHT22;34452;50.796;4.994;2022-12-11T08:14:30;1.40;99.90
48666;DHT22;34452;50.796;4.994;2022-12-11T08:16:55;1.50;99.90
48666;DHT22;34452;50.796;4.994;2022-12-11T08:19:22;1.50;99.90
48666;DHT22;34452;50.796;4.994;2022-12-11T08:21:48;1.50;99.90
48666;DHT22;34452;50.796;4.994;2022-12-11T08:24:14;1.60;99.90
48666;DHT22;34452;50.796;4.994;2022-12-11T08:26:44;1.60;99.90
48666;DHT22;34452;50.796;4.994;2022-12-11T08:29:10;1.60;99.90
48666;DHT22;34452;50.796;4.994;2022-12-11T08:31:36;1.60;99.90
48666;DHT22;34452;50.796;4.994;2022-12-11T08:34:01;1.60;99.90
48666;DHT22;34452;50.796;4.994;2022-12-11T08:36:27;1.60;99.90
48666;DHT22;34452;50.796;4.994;2022-12-11T08:38:54;1.60;99.90
48666;DHT22;34452;50.796;4.994;2022-12-11T08:41:22;1.60;99.90
48666;DHT22;34452;50.796;4.994;2022-12-11T08:43:49;1.60;99.90
48666;DHT22;34452;50.796;4.994;2022-12-11T08:46:20;1.60;99.90
48666;DHT22;34452;50.796;4.994;2022-12-11T08:48:47;1.60;99.90
48666;DHT22;34452;50.796;4.994;2022-12-11T08:51:15;1.60;99.90
48666;DHT22;34452;50.796;4.994;2022-12-11T08:53:42;1.60;99.90
48666;DHT22;34452;50.796;4.994;2022-12-11T08:56:10;1.60;99.90
48666;DHT22;34452;50.796;4.994;2022-12-11T08:58:36;1.60;99.90
48666;DHT22;34452;50.796;4.994;2022-12-11T09:01:09;1.60;99.90
48666;DHT22;34452;50.796;4.994;2022-12-11T09:03:36;1.50;99.90
48666;DHT22;34452;50.796;4.994;2022-12-11T09:06:04;1.50;99.90
48666;DHT22;34452;50.796;4.994;2022-12-11T09:08:31;1.50;99.90
48666;DHT22;34452;50.796;4.994;2022-12-11T09:11:04;1.50;99.90
48666;DHT22;34452;50.796;4.994;2022-12-11T09:13:30;1.50;99.90
48666;DHT22;34452;50.796;4.994;2022-12-11T09:15:56;1.40;99.90
48666;DHT22;34452;50.796;4.994;2022-12-11T09:18:22;1.40;99.90
48666;DHT22;34452;50.796;4.994;2022-12-11T09:20:49;1.40;99.90
48666;DHT22;34452;50.796;4.994;2022-12-11T09:23:21;1.50;99.90
48666;DHT22;34452;50.796;4.994;2022-12-11T09:25:47;1.50;99.90
48666;DHT22;34452;50.796;4.994;2022-12-11T09:28:13;1.40;99.90
48666;DHT22;34452;50.796;4.994;2022-12-11T09:30:38;1.50;99.90
48666;DHT22;34452;50.796;4.994;2022-12-11T09:33:04;1.60;99.90
48666;DHT22;34452;50.796;4.994;2022-12-11T09:35:30;1.70;99.90
48666;DHT22;34452;50.796;4.994;2022-12-11T09:37:56;1.70;99.90
48666;DHT22;34452;50.796;4.994;2022-12-11T09:40:22;1.70;99.90
48666;DHT22;34452;50.796;4.994;2022-12-11T09:43:05;1.60;99.90
48666;DHT22;34452;50.796;4.994;2022-12-11T09:45:34;1.60;99.90
48666;DHT22;34452;50.796;4.994;2022-12-11T09:48:00;1.70;99.90
48666;DHT22;34452;50.796;4.994;2022-12-11T09:50:35;1.70;99.90
48666;DHT22;34452;50.796;4.994;2022-12-11T09:53:26;1.70;99.90
48666;DHT22;34452;50.796;4.994;2022-12-11T09:56:10;1.60;99.90
48666;DHT22;34452;50.796;4.994;2022-12-11T09:59:27;1.70;99.90
48666;DHT22;34452;50.796;4.994;2022-12-11T10:04:44;1.90;99.90
48666;DHT22;34452;50.796;4.994;2022-12-11T10:10:25;1.90;99.90
48666;DHT22;34452;50.796;4.994;2022-12-11T10:18:00;1.90;99.90
48666;DHT22;34452;50.796;4.994;2022-12-11T10:20:31;1.90;99.90
48666;DHT22;34452;50.796;4.994;2022-12-11T10:23:00;1.90;99.90
48666;DHT22;34452;50.796;4.994;2022-12-11T10:25:34;1.90;99.90
48666;DHT22;34452;50.796;4.994;2022-12-11T10:28:09;2.00;99.90
48666;DHT22;34452;50.796;4.994;2022-12-11T10:30:38;2.00;99.90
48666;DHT22;34452;50.796;4.994;2022-12-11T10:40:53;2.30;99.90
48666;DHT22;34452;50.796;4.994;2022-12-11T10:43:19;2.40;99.90
48666;DHT22;34452;50.796;4.994;2022-12-11T10:45:53;2.40;99.90
48666;DHT22;34452;50.796;4.994;2022-12-11T10:48:19;2.50;99.90
48666;DHT22;34452;50.796;4.994;2022-12-11T10:51:01;2.50;99.90
48666;DHT22;34452;50.796;4.994;2022-12-11T10:53:28;2.50;99.90
48666;DHT22;34452;50.796;4.994;2022-12-11T10:55:55;2.50;99.90
48666;DHT22;34452;50.796;4.994;2022-12-11T10:58:26;2.50;99.90
48666;DHT22;34452;50.796;4.994;2022-12-11T11:01:06;2.50;99.90
48666;DHT22;34452;50.796;4.994;2022-12-11T11:03:34;2.50;99.90
48666;DHT22;34452;50.796;4.994;2022-12-11T11:06:13;2.40;99.90
48666;DHT22;34452;50.796;4.994;2022-12-11T11:08:45;2.40;99.90
48666;DHT22;34452;50.796;4.994;2022-12-11T11:16:38;2.70;99.90
48666;DHT22;34452;50.796;4.994;2022-12-11T11:19:05;2.70;99.90
48666;DHT22;34452;50.796;4.994;2022-12-11T11:21:33;2.70;99.90
48666;DHT22;34452;50.796;4.994;2022-12-11T11:23:59;2.70;99.90
48666;DHT22;34452;50.796;4.994;2022-12-11T11:26:25;2.80;99.90
48666;DHT22;34452;50.796;4.994;2022-12-11T11:28:52;2.80;99.90
48666;DHT22;34452;50.796;4.994;2022-12-11T11:31:21;2.80;99.90
48666;DHT22;34452;50.796;4.994;2022-12-11T11:34:13;2.80;99.90
48666;DHT22;34452;50.796;4.994;2022-12-11T11:36:43;2.90;99.90
48666;DHT22;34452;50.796;4.994;2022-12-11T11:39:25;2.90;99.90
48666;DHT22;34452;50.796;4.994;2022-12-11T11:44:37;3.00;99.90
48666;DHT22;34452;50.796;4.994;2022-12-11T11:47:16;3.10;99.90
48666;DHT22;34452;50.796;4.994;2022-12-11T11:52:40;3.20;99.90
48666;DHT22;34452;50.796;4.994;2022-12-11T11:55:14;3.20;99.90
48666;DHT22;34452;50.796;4.994;2022-12-11T11:57:59;3.20;99.90
48666;DHT22;34452;50.796;4.994;2022-12-11T12:00:27;3.10;99.90
48666;DHT22;34452;50.796;4.994;2022-12-11T12:02:58;3.10;99.90
48666;DHT22;34452;50.796;4.994;2022-12-11T12:21:52;3.20;99.90
48666;DHT22;34452;50.796;4.994;2022-12-11T12:24:44;3.10;99.90
48666;DHT22;34452;50.796;4.994;2022-12-11T12:27:22;3.20;99.90
48666;DHT22;34452;50.796;4.994;2022-12-11T12:30:04;3.20;99.90
48666;DHT22;34452;50.796;4.994;2022-12-11T12:35:59;3.20;99.90
48666;DHT22;34452;50.796;4.994;2022-12-11T12:38:54;3.20;99.90
48666;DHT22;34452;50.796;4.994;2022-12-11T12:41:27;3.20;99.90
48666;DHT22;34452;50.796;4.994;2022-12-11T12:44:16;3.30;99.90
48666;DHT22;34452;50.796;4.994;2022-12-11T12:49:47;3.40;99.90
48666;DHT22;34452;50.796;4.994;2022-12-11T12:52:34;3.40;99.90
48666;DHT22;34452;50.796;4.994;2022-12-11T12:55:19;3.40;99.90
48666;DHT22;34452;50.796;4.994;2022-12-11T12:57:54;3.40;99.90
48666;DHT22;34452;50.796;4.994;2022-12-11T13:00:37;3.30;99.90
48666;DHT22;34452;50.796;4.994;2022-12-11T13:03:16;3.30;99.90
48666;DHT22;34452;50.796;4.994;2022-12-11T13:05:55;3.20;99.90
48666;DHT22;34452;50.796;4.994;2022-12-11T13:08:47;3.20;99.90
48666;DHT22;34452;50.796;4.994;2022-12-11T13:11:16;3.10;99.90
48666;DHT22;34452;50.796;4.994;2022-12-11T13:13:46;3.00;99.90
48666;DHT22;34452;50.796;4.994;2022-12-11T13:18:46;2.80;99.90
48666;DHT22;34452;50.796;4.994;2022-12-11T13:21:36;2.70;99.90
48666;DHT22;34452;50.796;4.994;2022-12-11T13:24:15;2.70;99.90
48666;DHT22;34452;50.796;4.994;2022-12-11T13:26:41;2.70;99.90
48666;DHT22;34452;50.796;4.994;2022-12-11T13:29:26;2.80;99.90
48666;DHT22;34452;50.796;4.994;2022-12-11T13:34:40;2.80;99.90
48666;DHT22;34452;50.796;4.994;2022-12-11T13:37:43;2.90;99.90
48666;DHT22;34452;50.796;4.994;2022-12-11T13:40:27;2.90;99.90
48666;DHT22;34452;50.796;4.994;2022-12-11T13:43:04;2.90;99.90
48666;DHT22;34452;50.796;4.994;2022-12-11T13:45:49;2.90;99.90
48666;DHT22;34452;50.796;4.994;2022-12-11T13:48:25;2.90;99.90
48666;DHT22;34452;50.796;4.994;2022-12-11T13:50:53;2.80;99.90
48666;DHT22;34452;50.796;4.994;2022-12-11T13:53:20;2.80;99.90
48666;DHT22;34452;50.796;4.994;2022-12-11T13:55:54;2.80;99.90
48666;DHT22;34452;50.796;4.994;2022-12-11T13:58:21;2.90;99.90
48666;DHT22;34452;50.796;4.994;2022-12-11T14:01:06;2.90;99.90
48666;DHT22;34452;50.796;4.994;2022-12-11T14:03:33;2.90;99.90
48666;DHT22;34452;50.796;4.994;2022-12-11T14:06:00;2.90;99.90
48666;DHT22;34452;50.796;4.994;2022-12-11T14:08:34;2.90;99.90
48666;DHT22;34452;50.796;4.994;2022-12-11T14:11:00;3.00;99.90
48666;DHT22;34452;50.796;4.994;2022-12-11T14:13:37;3.00;99.90
48666;DHT22;34452;50.796;4.994;2022-12-11T14:16:05;3.00;99.90
48666;DHT22;34452;50.796;4.994;2022-12-11T14:18:32;3.00;99.90
48666;DHT22;34452;50.796;4.994;2022-12-11T14:21:02;3.00;99.90
48666;DHT22;34452;50.796;4.994;2022-12-11T14:23:36;3.00;99.90
48666;DHT22;34452;50.796;4.994;2022-12-11T14:26:23;3.00;99.90
48666;DHT22;34452;50.796;4.994;2022-12-11T14:28:50;2.90;99.90
48666;DHT22;34452;50.796;4.994;2022-12-11T14:31:17;2.90;99.90
48666;DHT22;34452;50.796;4.994;2022-12-11T14:33:49;2.90;99.90
48666;DHT22;34452;50.796;4.994;2022-12-11T14:36:16;2.80;99.90
48666;DHT22;34452;50.796;4.994;2022-12-11T14:38:48;2.80;99.90
48666;DHT22;34452;50.796;4.994;2022-12-11T14:43:58;2.80;99.90
48666;DHT22;34452;50.796;4.994;2022-12-11T14:47:14;2.70;99.90
48666;DHT22;34452;50.796;4.994;2022-12-11T14:49:32;2.70;99.90
48666;DHT22;34452;50.796;4.994;2022-12-11T14:52:00;2.70;99.90
48666;DHT22;34452;50.796;4.994;2022-12-11T14:54:31;2.70;99.90
48666;DHT22;34452;50.796;4.994;2022-12-11T14:56:59;2.70;99.90
48666;DHT22;34452;50.796;4.994;2022-12-11T14:59:28;2.70;99.90
48666;DHT22;34452;50.796;4.994;2022-12-11T15:02:02;2.70;99.90
48666;DHT22;34452;50.796;4.994;2022-12-11T15:04:30;2.70;99.90
48666;DHT22;34452;50.796;4.994;2022-12-11T15:06:57;2.60;99.90
48666;DHT22;34452;50.796;4.994;2022-12-11T15:12:16;2.50;99.90
48666;DHT22;34452;50.796;4.994;2022-12-11T15:14:50;2.50;99.90
48666;DHT22;34452;50.796;4.994;2022-12-11T15:17:17;2.40;99.90
48666;DHT22;34452;50.796;4.994;2022-12-11T15:19:52;2.40;99.90
48666;DHT22;34452;50.796;4.994;2022-12-11T15:22:20;2.40;99.90
48666;DHT22;34452;50.796;4.994;2022-12-11T15:24:52;2.40;99.90
48666;DHT22;34452;50.796;4.994;2022-12-11T15:27:36;2.50;99.90
48666;DHT22;34452;50.796;4.994;2022-12-11T15:35:38;2.40;99.90
48666;DHT22;34452;50.796;4.994;2022-12-11T15:38:05;2.40;99.90
48666;DHT22;34452;50.796;4.994;2022-12-11T15:40:30;2.50;99.90
48666;DHT22;34452;50.796;4.994;2022-12-11T15:42:57;2.50;99.90
48666;DHT22;34452;50.796;4.994;2022-12-11T15:45:26;2.50;99.90
48666;DHT22;34452;50.796;4.994;2022-12-11T15:47:55;2.50;99.90
48666;DHT22;34452;50.796;4.994;2022-12-11T15:50:26;2.50;99.90
48666;DHT22;34452;50.796;4.994;2022-12-11T15:52:54;2.50;99.90
48666;DHT22;34452;50.796;4.994;2022-12-11T15:55:22;2.40;99.90
48666;DHT22;34452;50.796;4.994;2022-12-11T15:57:53;2.40;99.90
48666;DHT22;34452;50.796;4.994;2022-12-11T16:00:20;2.30;99.90
48666;DHT22;34452;50.796;4.994;2022-12-11T16:02:46;2.30;99.90
48666;DHT22;34452;50.796;4.994;2022-12-11T16:05:13;2.30;99.90
48666;DHT22;34452;50.796;4.994;2022-12-11T16:07:39;2.40;99.90
48666;DHT22;34452;50.796;4.994;2022-12-11T16:10:06;2.40;99.90
48666;DHT22;34452;50.796;4.994;2022-12-11T16:12:32;2.40;99.90
48666;DHT22;34452;50.796;4.994;2022-12-11T16:14:58;2.40;99.90
48666;DHT22;34452;50.796;4.994;2022-12-11T16:17:24;2.30;99.90
48666;DHT22;34452;50.796;4.994;2022-12-11T16:19:49;2.40;99.90
48666;DHT22;34452;50.796;4.994;2022-12-11T16:22:15;2.30;99.90
48666;DHT22;34452;50.796;4.994;2022-12-11T16:24:41;2.30;99.90
48666;DHT22;34452;50.796;4.994;2022-12-11T16:27:07;2.30;99.90
48666;DHT22;34452;50.796;4.994;2022-12-11T16:29:39;2.30;99.90
48666;DHT22;34452;50.796;4.994;2022-12-11T16:32:06;2.30;99.90
48666;DHT22;34452;50.796;4.994;2022-12-11T16:34:33;2.30;99.90
48666;DHT22;34452;50.796;4.994;2022-12-11T16:36:59;2.30;99.90
48666;DHT22;34452;50.796;4.994;2022-12-11T16:39:25;2.30;99.90
48666;DHT22;34452;50.796;4.994;2022-12-11T16:41:50;2.30;99.90
48666;DHT22;34452;50.796;4.994;2022-12-11T16:44:21;2.30;99.90
48666;DHT22;34452;50.796;4.994;2022-12-11T16:46:47;2.30;99.90
48666;DHT22;34452;50.796;4.994;2022-12-11T16:49:13;2.30;99.90
48666;DHT22;34452;50.796;4.994;2022-12-11T16:51:39;2.30;99.90
48666;DHT22;34452;50.796;4.994;2022-12-11T16:54:05;2.30;99.90
48666;DHT22;34452;50.796;4.994;2022-12-11T16:56:31;2.40;99.90
48666;DHT22;34452;50.796;4.994;2022-12-11T16:58:57;2.50;99.90
48666;DHT22;34452;50.796;4.994;2022-12-11T17:01:22;2.50;99.90
48666;DHT22;34452;50.796;4.994;2022-12-11T17:03:48;2.50;99.90
48666;DHT22;34452;50.796;4.994;2022-12-11T17:06:15;2.50;99.90
48666;DHT22;34452;50.796;4.994;2022-12-11T17:08:42;2.40;99.90
48666;DHT22;34452;50.796;4.994;2022-12-11T17:11:10;2.50;99.90
48666;DHT22;34452;50.796;4.994;2022-12-11T17:13:36;2.50;99.90
48666;DHT22;34452;50.796;4.994;2022-12-11T17:16:06;2.50;99.90
48666;DHT22;34452;50.796;4.994;2022-12-11T17:18:32;2.50;99.90
48666;DHT22;34452;50.796;4.994;2022-12-11T17:20:59;2.50;99.90
48666;DHT22;34452;50.796;4.994;2022-12-11T17:23:29;2.50;99.90
48666;DHT22;34452;50.796;4.994;2022-12-11T17:25:55;2.50;99.90
48666;DHT22;34452;50.796;4.994;2022-12-11T17:28:20;2.50;99.90
48666;DHT22;34452;50.796;4.994;2022-12-11T17:30:46;2.50;99.90
48666;DHT22;34452;50.796;4.994;2022-12-11T17:33:14;2.40;99.90
48666;DHT22;34452;50.796;4.994;2022-12-11T17:35:40;2.40;99.90
48666;DHT22;34452;50.796;4.994;2022-12-11T17:38:06;2.30;99.90